Time;durP1;ratioP1;P1;durP2;ratioP2;P2;SDS_P1;SDS_P2;PMS_P1;PMS_P2;Temp;Humidity;BMP_temperature;BMP_pressure;BME280_temperature;BME280_humidity;BME280_pressure;Samples;Min_cycle;Max_cycle;Signal;HPM_P1;HPM_P2
2024/02/25 00:01:22;;;;;;;2.08;0.70;;;7.80;99.90;;;;;;5049377;28;20061;-73
2024/02/25 00:03:48;;;;;;;2.33;0.70;;;7.90;99.90;;;;;;5043777;28;20040;-74
2024/02/25 00:06:14;;;;;;;1.40;0.80;;;8.00;99.90;;;;;;5036267;28;20042;-74
2024/02/25 00:08:39;;;;;;;1.25;0.70;;;8.00;99.90;;;;;;5033530;28;20021;-74
2024/02/25 00:11:05;;;;;;;1.30;0.68;;;8.00;99.90;;;;;;5046651;28;20033;-75
2024/02/25 00:13:31;;;;;;;1.42;0.80;;;8.00;99.90;;;;;;5042865;28;20021;-75
2024/02/25 00:15:57;;;;;;;0.68;0.45;;;7.90;99.90;;;;;;5051907;28;20028;-74
2024/02/25 00:18:23;;;;;;;1.55;0.60;;;7.90;99.90;;;;;;5051561;28;20112;-74
2024/02/25 00:20:48;;;;;;;0.98;0.70;;;7.90;99.90;;;;;;5047879;28;20021;-72
2024/02/25 00:23:14;;;;;;;0.98;0.60;;;8.00;99.90;;;;;;5052101;28;20025;-75
2024/02/25 00:25:40;;;;;;;2.22;0.88;;;8.00;99.90;;;;;;5036360;28;20083;-75
2024/02/25 00:28:06;;;;;;;0.88;0.70;;;8.00;99.90;;;;;;5032268;28;20050;-76
2024/02/25 00:30:32;;;;;;;1.75;0.70;;;8.00;99.90;;;;;;5035781;28;20104;-75
2024/02/25 00:32:58;;;;;;;0.77;0.70;;;8.00;99.90;;;;;;5062838;28;20021;-74
2024/02/25 00:35:23;;;;;;;1.05;0.60;;;7.90;99.90;;;;;;5043246;28;20377;-77
2024/02/25 00:37:49;;;;;;;0.80;0.50;;;7.80;99.90;;;;;;5052203;28;20025;-73
2024/02/25 00:40:15;;;;;;;1.15;0.60;;;7.90;99.90;;;;;;5052684;28;20032;-73
2024/02/25 00:42:42;;;;;;;2.60;0.60;;;7.90;99.90;;;;;;5052872;28;20025;-73
2024/02/25 00:45:08;;;;;;;0.50;0.50;;;7.80;99.90;;;;;;5052496;28;20032;-76
2024/02/25 00:47:34;;;;;;;1.15;0.55;;;7.80;99.90;;;;;;5042318;28;20033;-73
2024/02/25 00:50:00;;;;;;;0.57;0.40;;;7.90;99.90;;;;;;5031000;28;20018;-76
2024/02/25 00:52:27;;;;;;;0.90;0.70;;;7.90;99.90;;;;;;5043317;28;20024;-78
2024/02/25 00:54:53;;;;;;;1.80;0.60;;;8.00;99.90;;;;;;5038372;28;20013;-76
2024/02/25 00:57:19;;;;;;;0.57;0.32;;;8.00;99.90;;;;;;5050718;28;20099;-77
2024/02/25 00:59:45;;;;;;;0.70;0.40;;;8.00;99.90;;;;;;5048161;28;20513;-78
2024/02/25 01:02:11;;;;;;;1.73;0.60;;;8.00;99.90;;;;;;5032691;28;20033;-78
2024/02/25 01:04:37;;;;;;;0.50;0.50;;;8.00;99.90;;;;;;5049252;28;20029;-77
2024/02/25 01:07:02;;;;;;;0.70;0.50;;;8.00;99.90;;;;;;5052031;28;20474;-76
2024/02/25 01:09:30;;;;;;;1.25;0.65;;;8.10;99.90;;;;;;5052195;28;20021;-79
2024/02/25 01:11:56;;;;;;;0.57;0.50;;;8.00;99.90;;;;;;5052202;28;20070;-76
2024/02/25 01:14:21;;;;;;;1.23;0.43;;;8.00;99.90;;;;;;5052015;28;20413;-76
2024/02/25 01:16:48;;;;;;;1.80;0.50;;;8.00;99.90;;;;;;5052179;28;20029;-77
2024/02/25 01:19:14;;;;;;;0.82;0.50;;;8.10;99.90;;;;;;5046331;28;20049;-77
2024/02/25 01:21:40;;;;;;;0.90;0.63;;;8.10;99.90;;;;;;5043475;28;20508;-78
2024/02/25 01:24:06;;;;;;;0.85;0.50;;;8.00;99.90;;;;;;5047146;28;20045;-78
2024/02/25 01:26:37;;;;;;;0.93;0.50;;;8.00;99.90;;;;;;5031224;28;20026;-78
2024/02/25 01:29:04;;;;;;;1.27;0.60;;;8.10;99.90;;;;;;5036450;28;20472;-78
2024/02/25 01:31:29;;;;;;;1.13;0.70;;;8.10;99.90;;;;;;5052102;28;20036;-76
2024/02/25 01:33:55;;;;;;;1.05;0.40;;;8.10;99.90;;;;;;5038152;28;20025;-78
2024/02/25 01:36:21;;;;;;;0.73;0.40;;;8.20;99.90;;;;;;5050449;28;20631;-76
2024/02/25 01:38:46;;;;;;;1.35;0.50;;;8.20;99.90;;;;;;5046093;28;20512;-79
2024/02/25 01:41:12;;;;;;;2.25;0.45;;;8.20;99.90;;;;;;5043100;28;20120;-75
2024/02/25 01:43:40;;;;;;;0.65;0.38;;;8.10;99.90;;;;;;5045242;28;20021;-77
2024/02/25 01:46:06;;;;;;;0.65;0.38;;;8.00;99.90;;;;;;5042948;28;20040;-79
2024/02/25 01:48:32;;;;;;;1.10;0.60;;;8.00;99.90;;;;;;5051579;28;20040;-78
2024/02/25 01:50:58;;;;;;;0.32;0.32;;;8.00;99.90;;;;;;5051640;28;20186;-77
2024/02/25 01:53:25;;;;;;;0.60;0.32;;;7.90;99.90;;;;;;5051084;28;20024;-77
2024/02/25 01:55:51;;;;;;;1.23;0.35;;;7.90;99.90;;;;;;5051648;28;20516;-78
2024/02/25 01:58:18;;;;;;;1.10;0.40;;;8.00;99.90;;;;;;5050882;28;20045;-79
2024/02/25 02:00:44;;;;;;;0.40;0.32;;;8.00;99.90;;;;;;5051625;28;20027;-79
2024/02/25 02:03:10;;;;;;;2.05;0.50;;;8.10;99.90;;;;;;5051116;28;20486;-78
2024/02/25 02:05:36;;;;;;;0.40;0.38;;;8.10;99.90;;;;;;5038769;28;20037;-79
2024/02/25 02:08:03;;;;;;;0.50;0.40;;;8.00;99.90;;;;;;5049760;28;20099;-78
2024/02/25 02:10:29;;;;;;;0.63;0.57;;;7.90;99.90;;;;;;5050703;28;20056;-76
2024/02/25 02:12:55;;;;;;;0.32;0.30;;;7.90;99.90;;;;;;5038387;28;20052;-79
2024/02/25 02:15:21;;;;;;;0.90;0.50;;;7.90;99.90;;;;;;5051124;28;20029;-77
2024/02/25 02:17:48;;;;;;;2.22;0.43;;;7.80;99.90;;;;;;5046369;28;20021;-79
2024/02/25 02:20:23;;;;;;;2.67;0.57;;;7.80;99.90;;;;;;5041176;28;20393;-79
2024/02/25 02:22:51;;;;;;;1.48;0.40;;;7.90;99.90;;;;;;5050957;28;20147;-79
2024/02/25 02:25:16;;;;;;;0.57;0.40;;;8.00;99.90;;;;;;5051320;28;20028;-79
2024/02/25 02:27:44;;;;;;;0.77;0.55;;;8.00;99.90;;;;;;5036831;28;20402;-80
2024/02/25 02:30:11;;;;;;;1.65;0.40;;;7.90;99.90;;;;;;5038333;28;20083;-79
2024/02/25 02:32:36;;;;;;;0.38;0.38;;;8.00;99.90;;;;;;5037291;28;20069;-79
2024/02/25 02:35:03;;;;;;;0.68;0.50;;;8.00;99.90;;;;;;5037104;28;20046;-78
2024/02/25 02:37:29;;;;;;;1.95;0.45;;;8.00;99.90;;;;;;5050578;28;20454;-79
2024/02/25 02:39:55;;;;;;;1.55;0.73;;;8.00;99.90;;;;;;5051378;28;20025;-79
2024/02/25 02:42:22;;;;;;;1.50;0.60;;;7.90;99.90;;;;;;5051173;28;20033;-77
2024/02/25 02:44:48;;;;;;;0.73;0.43;;;7.90;99.90;;;;;;5051505;28;20029;-76
2024/02/25 02:47:15;;;;;;;3.08;0.60;;;7.80;99.90;;;;;;5042968;28;20033;-77
2024/02/25 02:49:41;;;;;;;0.60;0.60;;;7.80;99.90;;;;;;5048947;28;20029;-77
2024/02/25 02:52:07;;;;;;;0.57;0.40;;;7.80;99.90;;;;;;5054973;28;20021;-74
2024/02/25 02:54:32;;;;;;;0.77;0.60;;;7.80;99.90;;;;;;5055021;28;20465;-75
2024/02/25 02:56:58;;;;;;;0.50;0.30;;;7.80;99.90;;;;;;5045730;28;20466;-75
2024/02/25 02:59:24;;;;;;;1.05;0.32;;;7.80;99.90;;;;;;5049626;28;20025;-75
2024/02/25 03:01:50;;;;;;;1.65;0.50;;;7.80;99.90;;;;;;5052875;28;20543;-75
2024/02/25 03:04:17;;;;;;;0.80;0.68;;;7.90;99.90;;;;;;5053883;28;20032;-75
2024/02/25 03:06:43;;;;;;;0.80;0.60;;;7.90;99.90;;;;;;5054595;28;20525;-75
2024/02/25 03:09:08;;;;;;;2.67;0.70;;;7.80;99.90;;;;;;5053377;28;20017;-76
2024/02/25 03:11:34;;;;;;;0.60;0.60;;;7.80;99.90;;;;;;5034910;28;20246;-77
2024/02/25 03:14:00;;;;;;;0.77;0.60;;;7.90;99.90;;;;;;5049274;28;20033;-76
2024/02/25 03:16:26;;;;;;;0.85;0.60;;;7.80;99.90;;;;;;5054640;28;20079;-75
2024/02/25 03:18:52;;;;;;;0.60;0.50;;;7.80;99.90;;;;;;5054587;28;20029;-77
2024/02/25 03:21:18;;;;;;;0.65;0.50;;;7.80;99.90;;;;;;5052803;28;20025;-77
2024/02/25 03:23:44;;;;;;;2.28;0.80;;;7.90;99.90;;;;;;5054069;28;20029;-76
2024/02/25 03:26:17;;;;;;;0.82;0.68;;;7.80;99.90;;;;;;5044983;28;20052;-75
2024/02/25 03:28:43;;;;;;;1.17;0.70;;;7.80;99.90;;;;;;5036831;28;20036;-77
2024/02/25 03:31:08;;;;;;;1.17;1.10;;;7.80;99.90;;;;;;5052081;28;20048;-76
2024/02/25 03:33:34;;;;;;;1.65;1.00;;;7.80;99.90;;;;;;5054145;28;20037;-77
2024/02/25 03:36:00;;;;;;;1.30;0.90;;;7.80;99.90;;;;;;5053092;28;20410;-77
2024/02/25 03:38:26;;;;;;;1.13;1.00;;;7.70;99.90;;;;;;5053904;28;20068;-74
2024/02/25 03:40:52;;;;;;;1.98;0.80;;;7.80;99.90;;;;;;5053635;28;20021;-77
2024/02/25 03:43:18;;;;;;;0.60;0.60;;;7.90;99.90;;;;;;5054074;28;20036;-77
2024/02/25 03:45:44;;;;;;;1.02;0.75;;;7.90;99.90;;;;;;5053710;28;20032;-77
2024/02/25 03:48:10;;;;;;;0.95;0.85;;;7.90;99.90;;;;;;5051558;28;20040;-73
2024/02/25 03:50:36;;;;;;;1.35;1.20;;;7.80;99.90;;;;;;5042698;28;20105;-77
2024/02/25 03:53:01;;;;;;;1.30;1.10;;;7.80;99.90;;;;;;5053306;28;20471;-77
2024/02/25 03:55:28;;;;;;;2.63;1.20;;;7.90;99.90;;;;;;5044089;28;20037;-77
2024/02/25 03:57:55;;;;;;;1.08;0.98;;;7.90;99.90;;;;;;5032755;28;20026;-77
2024/02/25 04:00:21;;;;;;;1.15;1.05;;;7.80;99.90;;;;;;5032889;28;20014;-75
2024/02/25 04:02:47;;;;;;;2.42;1.02;;;7.80;99.90;;;;;;5036137;28;20037;-74
2024/02/25 04:05:14;;;;;;;2.30;1.00;;;7.70;99.90;;;;;;5053770;28;20020;-74
2024/02/25 04:07:46;;;;;;;1.48;1.17;;;7.80;99.90;;;;;;5050116;28;20103;-75
2024/02/25 04:10:12;;;;;;;1.00;0.90;;;7.80;99.90;;;;;;5033245;28;20052;-74
2024/02/25 04:12:39;;;;;;;1.05;1.02;;;7.80;99.90;;;;;;5032324;28;20029;-74
2024/02/25 04:15:06;;;;;;;2.83;1.05;;;7.80;99.90;;;;;;5043878;28;20500;-74
2024/02/25 04:17:32;;;;;;;1.35;1.08;;;7.80;99.90;;;;;;5053073;28;20017;-72
2024/02/25 04:19:58;;;;;;;1.30;1.00;;;7.80;99.90;;;;;;5052777;28;20489;-74
2024/02/25 04:22:24;;;;;;;1.48;1.38;;;7.90;99.90;;;;;;5036180;28;20029;-75
2024/02/25 04:24:50;;;;;;;1.38;1.23;;;7.90;99.90;;;;;;5044529;28;20417;-74
2024/02/25 04:27:17;;;;;;;2.40;1.05;;;7.90;99.90;;;;;;5052149;28;20037;-75
2024/02/25 04:29:43;;;;;;;1.40;1.20;;;7.90;99.90;;;;;;5053077;28;20079;-75
2024/02/25 04:32:13;;;;;;;1.40;1.30;;;7.90;99.90;;;;;;5052730;28;20029;-74
2024/02/25 04:34:42;;;;;;;1.65;1.35;;;8.00;99.90;;;;;;5052865;28;20029;-74
2024/02/25 04:37:08;;;;;;;3.03;1.50;;;7.90;99.90;;;;;;5052087;28;20061;-73
2024/02/25 04:39:38;;;;;;;2.63;1.52;;;7.80;99.90;;;;;;5041213;28;20053;-74
2024/02/25 04:42:05;;;;;;;1.50;1.40;;;7.80;99.90;;;;;;5038664;28;20029;-73
2024/02/25 04:44:31;;;;;;;3.25;1.88;;;7.90;99.90;;;;;;5053141;28;20021;-74
2024/02/25 04:46:57;;;;;;;3.13;1.90;;;7.90;99.90;;;;;;5046598;28;20124;-74
2024/02/25 04:49:23;;;;;;;1.73;1.35;;;7.90;99.90;;;;;;5032917;28;20474;-75
2024/02/25 04:51:49;;;;;;;1.80;1.48;;;7.90;99.90;;;;;;5051949;28;20025;-73
2024/02/25 04:54:15;;;;;;;2.25;1.60;;;7.90;99.90;;;;;;5064095;28;20032;-73
2024/02/25 04:56:42;;;;;;;2.10;1.83;;;7.90;99.90;;;;;;5052484;28;20484;-75
2024/02/25 04:59:08;;;;;;;2.67;1.60;;;7.90;99.90;;;;;;5052736;28;20032;-76
2024/02/25 05:01:34;;;;;;;2.58;1.70;;;7.90;99.90;;;;;;5052715;28;20021;-77
2024/02/25 05:04:00;;;;;;;4.78;1.95;;;7.80;99.90;;;;;;5052199;28;20028;-75
2024/02/25 05:06:25;;;;;;;4.18;2.20;;;7.80;99.90;;;;;;5037900;28;20524;-73
2024/02/25 05:08:51;;;;;;;2.50;1.85;;;7.90;99.90;;;;;;5051194;28;20025;-74
2024/02/25 05:11:17;;;;;;;2.75;2.10;;;7.90;99.90;;;;;;5051739;28;20056;-73
2024/02/25 05:13:43;;;;;;;2.67;1.90;;;7.80;99.90;;;;;;5051805;28;20540;-74
2024/02/25 05:16:09;;;;;;;3.30;1.95;;;7.80;99.90;;;;;;5050902;28;20112;-74
2024/02/25 05:18:34;;;;;;;3.67;2.10;;;7.90;99.90;;;;;;5052644;28;20048;-73
2024/02/25 05:21:04;;;;;;;2.35;2.15;;;7.90;99.90;;;;;;5051927;28;20490;-75
2024/02/25 05:23:30;;;;;;;4.65;2.20;;;8.00;99.90;;;;;;5051190;28;20027;-76
2024/02/25 05:25:56;;;;;;;2.17;2.00;;;7.90;99.90;;;;;;5051698;28;20117;-76
2024/02/25 05:28:22;;;;;;;3.40;2.10;;;7.90;99.90;;;;;;5052281;28;20527;-74
2024/02/25 05:30:48;;;;;;;3.75;2.05;;;8.00;99.90;;;;;;5051900;28;20013;-75
2024/02/25 05:33:13;;;;;;;2.83;2.30;;;8.00;99.90;;;;;;5051248;28;20537;-74
2024/02/25 05:35:39;;;;;;;3.15;2.58;;;8.00;99.90;;;;;;5032443;28;20029;-74
2024/02/25 05:38:05;;;;;;;2.92;2.38;;;8.00;99.90;;;;;;5045645;28;20029;-76
2024/02/25 05:40:31;;;;;;;5.28;2.25;;;8.10;99.90;;;;;;5051026;28;20025;-75
2024/02/25 05:42:57;;;;;;;5.13;2.60;;;8.10;99.90;;;;;;5052156;28;20029;-74
2024/02/25 05:45:23;;;;;;;3.15;2.53;;;8.10;99.90;;;;;;5034940;28;20116;-74
2024/02/25 05:47:48;;;;;;;2.97;2.50;;;8.00;99.90;;;;;;5052042;28;20025;-74
2024/02/25 05:50:14;;;;;;;5.55;2.53;;;8.00;99.90;;;;;;5038350;28;20021;-74
2024/02/25 05:52:42;;;;;;;4.55;2.50;;;8.10;99.90;;;;;;5047543;28;20031;-75
2024/02/25 05:55:08;;;;;;;3.35;2.90;;;8.10;99.90;;;;;;5050506;28;20427;-74
2024/02/25 05:57:34;;;;;;;6.20;2.72;;;8.10;99.90;;;;;;5052033;28;20021;-74
2024/02/25 06:00:00;;;;;;;3.38;2.88;;;8.10;99.90;;;;;;5051747;28;20109;-74
2024/02/25 06:02:25;;;;;;;2.83;2.58;;;8.10;99.90;;;;;;5051697;28;20515;-76
2024/02/25 06:04:51;;;;;;;5.60;2.90;;;8.10;99.90;;;;;;5041883;28;20084;-76
2024/02/25 06:07:17;;;;;;;4.03;2.67;;;8.00;99.90;;;;;;5047803;28;20124;-75
2024/02/25 06:09:43;;;;;;;4.32;3.30;;;8.10;99.90;;;;;;5040446;28;20120;-74
2024/02/25 06:12:09;;;;;;;6.22;2.85;;;8.10;99.90;;;;;;5048441;28;20028;-75
2024/02/25 06:14:35;;;;;;;6.30;3.35;;;8.20;99.90;;;;;;5050787;28;20017;-74
2024/02/25 06:17:01;;;;;;;6.22;3.33;;;8.20;99.90;;;;;;5051283;28;20440;-75
2024/02/25 06:19:26;;;;;;;4.88;3.35;;;8.10;99.90;;;;;;5051476;28;20104;-76
2024/02/25 06:21:52;;;;;;;4.15;3.70;;;8.10;99.90;;;;;;5042030;28;20107;-74
2024/02/25 06:24:18;;;;;;;4.30;2.92;;;8.10;99.90;;;;;;5035467;28;20021;-75
2024/02/25 06:26:44;;;;;;;4.32;2.83;;;8.10;99.90;;;;;;5044144;28;20094;-75
2024/02/25 06:29:10;;;;;;;4.00;3.42;;;8.00;99.90;;;;;;5055227;28;20056;-74
2024/02/25 06:31:36;;;;;;;4.15;3.13;;;8.00;99.90;;;;;;5055662;28;20043;-73
2024/02/25 06:34:02;;;;;;;4.32;3.13;;;8.10;99.90;;;;;;5055296;28;20021;-75
2024/02/25 06:36:28;;;;;;;7.72;3.60;;;8.10;99.90;;;;;;5053959;28;20029;-74
2024/02/25 06:38:54;;;;;;;5.50;3.13;;;8.10;99.90;;;;;;5050053;28;20014;-75
2024/02/25 06:41:23;;;;;;;7.13;3.50;;;8.10;99.90;;;;;;5033782;28;20029;-75
2024/02/25 06:43:51;;;;;;;4.78;3.15;;;8.00;99.90;;;;;;5039205;28;20017;-73
2024/02/25 06:46:17;;;;;;;5.57;2.97;;;8.10;99.90;;;;;;5044395;28;20037;-74
2024/02/25 06:48:43;;;;;;;4.70;3.03;;;8.00;99.90;;;;;;5052549;28;20009;-73
2024/02/25 06:51:22;;;;;;;5.90;2.95;;;8.10;99.90;;;;;;5055394;28;20025;-73
2024/02/25 06:53:48;;;;;;;4.45;2.90;;;8.20;99.90;;;;;;5035618;28;20025;-73
2024/02/25 06:56:16;;;;;;;3.60;3.30;;;8.20;99.90;;;;;;5046450;28;20021;-75
2024/02/25 06:58:43;;;;;;;3.47;2.72;;;8.10;99.90;;;;;;5054438;28;20385;-75
2024/02/25 07:01:09;;;;;;;5.10;3.10;;;8.10;99.90;;;;;;5054995;28;20473;-74
2024/02/25 07:03:35;;;;;;;3.72;2.72;;;8.10;99.90;;;;;;5054097;28;20033;-75
2024/02/25 07:06:00;;;;;;;2.70;2.35;;;8.00;99.90;;;;;;5054691;28;20044;-73
2024/02/25 07:08:26;;;;;;;3.42;2.35;;;8.00;99.90;;;;;;5054266;28;20036;-73
2024/02/25 07:10:52;;;;;;;4.45;2.78;;;7.90;99.90;;;;;;5053917;28;20474;-74
2024/02/25 07:13:18;;;;;;;6.72;3.40;;;8.00;99.90;;;;;;5051290;28;20147;-75
2024/02/25 07:15:44;;;;;;;4.28;2.88;;;8.00;99.90;;;;;;5050449;28;20020;-74
2024/02/25 07:18:10;;;;;;;5.32;3.20;;;8.10;99.90;;;;;;5053183;28;20029;-73
2024/02/25 07:20:35;;;;;;;6.10;3.83;;;8.20;99.90;;;;;;5042650;28;20409;-73
2024/02/25 07:23:01;;;;;;;6.55;3.65;;;8.20;99.90;;;;;;5052161;28;20179;-73
2024/02/25 07:25:27;;;;;;;4.90;4.40;;;8.10;99.90;;;;;;5053926;28;20569;-73
2024/02/25 07:27:52;;;;;;;4.78;3.10;;;8.20;99.90;;;;;;5041115;28;20317;-73
2024/02/25 07:30:19;;;;;;;6.63;3.42;;;8.20;99.90;;;;;;5052923;28;20125;-73
2024/02/25 07:32:45;;;;;;;7.82;3.65;;;8.20;99.90;;;;;;5041525;28;20057;-74
2024/02/25 07:35:11;;;;;;;5.03;3.55;;;8.20;99.90;;;;;;5046718;28;20068;-74
2024/02/25 07:37:36;;;;;;;9.40;5.20;;;8.20;99.90;;;;;;5042280;28;20040;-74
2024/02/25 07:40:04;;;;;;;5.95;4.65;;;8.30;99.90;;;;;;5050594;28;20032;-75
2024/02/25 07:42:30;;;;;;;6.03;4.10;;;8.30;99.90;;;;;;5044770;28;20057;-75
2024/02/25 07:44:55;;;;;;;6.43;3.20;;;8.30;99.90;;;;;;5045625;28;20080;-75
2024/02/25 07:47:21;;;;;;;4.32;3.50;;;8.30;99.90;;;;;;5033870;28;20041;-75
2024/02/25 07:49:47;;;;;;;4.88;2.85;;;8.20;99.90;;;;;;5039667;28;20374;-75
2024/02/25 07:52:13;;;;;;;3.22;2.35;;;8.20;99.90;;;;;;5052794;28;20493;-77
2024/02/25 07:54:38;;;;;;;3.67;2.53;;;8.20;99.90;;;;;;5052349;28;20129;-76
2024/02/25 07:57:04;;;;;;;2.97;2.05;;;8.20;99.90;;;;;;5047403;28;20022;-76
2024/02/25 07:59:30;;;;;;;5.05;2.90;;;8.20;99.90;;;;;;5033799;28;20540;-78
2024/02/25 08:01:56;;;;;;;3.13;2.58;;;8.20;99.90;;;;;;5045493;28;20100;-78
2024/02/25 08:04:23;;;;;;;3.50;2.00;;;8.40;99.90;;;;;;5035192;28;20032;-77
2024/02/25 08:06:48;;;;;;;4.63;2.42;;;8.30;99.90;;;;;;5033156;28;20140;-77
2024/02/25 08:09:14;;;;;;;3.45;1.83;;;8.40;99.90;;;;;;5033637;28;20059;-77
2024/02/25 08:11:40;;;;;;;6.22;2.22;;;8.50;99.90;;;;;;5031986;28;20096;-76
2024/02/25 08:14:06;;;;;;;4.93;2.78;;;8.60;99.90;;;;;;5033310;28;20029;-78
2024/02/25 08:16:35;;;;;;;4.90;2.35;;;8.70;99.90;;;;;;5044950;28;20068;-79
2024/02/25 08:19:01;;;;;;;3.60;1.90;;;8.70;99.90;;;;;;5032396;28;20048;-77
2024/02/25 08:21:27;;;;;;;2.05;1.75;;;8.70;99.90;;;;;;5031878;28;20469;-77
2024/02/25 08:23:53;;;;;;;4.53;1.80;;;8.70;99.90;;;;;;5043935;28;20389;-75
2024/02/25 08:26:18;;;;;;;5.57;1.98;;;8.80;99.90;;;;;;5052378;28;20485;-75
2024/02/25 08:28:45;;;;;;;3.17;1.60;;;8.80;99.90;;;;;;5053413;28;20024;-74
2024/02/25 08:31:10;;;;;;;4.70;1.55;;;9.00;99.90;;;;;;5051608;28;20507;-74
2024/02/25 08:33:36;;;;;;;3.67;1.85;;;9.00;99.90;;;;;;5050777;28;20025;-74
2024/02/25 08:36:02;;;;;;;5.45;1.80;;;9.10;99.90;;;;;;5052504;28;20048;-76
2024/02/25 08:38:28;;;;;;;3.42;1.40;;;9.20;99.90;;;;;;5041118;28;20104;-77
2024/02/25 08:40:54;;;;;;;3.15;1.63;;;9.30;99.90;;;;;;5032890;28;20113;-78
2024/02/25 08:43:20;;;;;;;4.00;1.27;;;9.30;99.90;;;;;;5033108;28;20025;-78
2024/02/25 08:45:45;;;;;;;2.97;1.13;;;9.30;99.90;;;;;;5037993;28;20025;-79
2024/02/25 08:48:11;;;;;;;4.22;1.75;;;9.40;99.90;;;;;;5045890;28;20111;-79
2024/02/25 08:50:37;;;;;;;4.38;1.30;;;9.40;99.90;;;;;;5052313;28;20473;-80
2024/02/25 08:53:03;;;;;;;4.10;1.73;;;9.30;99.90;;;;;;5052870;28;20036;-79
2024/02/25 08:55:28;;;;;;;3.13;1.40;;;9.50;99.90;;;;;;5041327;28;20029;-80
2024/02/25 08:57:54;;;;;;;5.03;1.40;;;9.40;99.90;;;;;;5052373;28;20028;-79
2024/02/25 09:00:20;;;;;;;6.00;1.30;;;9.40;99.90;;;;;;5049551;28;20029;-83
2024/02/25 09:02:46;;;;;;;2.97;1.40;;;9.50;99.90;;;;;;5044668;28;20031;-84
2024/02/25 09:05:11;;;;;;;1.80;1.27;;;9.60;99.90;;;;;;5035960;28;20401;-83
2024/02/25 09:07:37;;;;;;;7.43;1.38;;;9.80;99.90;;;;;;5043542;28;20032;-82
2024/02/25 09:10:05;;;;;;;3.95;1.50;;;9.90;99.90;;;;;;5043522;28;20029;-82
2024/02/25 09:12:33;;;;;;;2.42;1.25;;;10.00;99.90;;;;;;5034788;28;20121;-82
2024/02/25 09:14:59;;;;;;;3.50;1.48;;;10.10;99.90;;;;;;5049107;28;20025;-82
2024/02/25 09:17:24;;;;;;;4.93;1.30;;;10.30;99.90;;;;;;5047844;28;20147;-83
2024/02/25 09:19:50;;;;;;;2.05;1.33;;;10.40;99.90;;;;;;5045663;28;20125;-76
2024/02/25 09:22:15;;;;;;;4.95;1.38;;;10.50;99.90;;;;;;5042145;28;20025;-79
2024/02/25 09:24:44;;;;;;;2.90;1.23;;;10.50;99.90;;;;;;5038746;28;20112;-80
2024/02/25 09:27:10;;;;;;;5.28;1.40;;;10.50;99.90;;;;;;5045034;28;20662;-81
2024/02/25 09:29:41;;;;;;;2.10;1.20;;;10.50;99.90;;;;;;5034505;28;20104;-83
2024/02/25 09:32:07;;;;;;;2.80;1.20;;;10.50;99.90;;;;;;5038930;28;20020;-85
2024/02/25 09:34:33;;;;;;;5.70;1.40;;;10.50;99.90;;;;;;5052057;28;20272;-81
2024/02/25 09:36:59;;;;;;;3.92;1.40;;;10.70;99.90;;;;;;5049456;28;20033;-76
2024/02/25 09:39:24;;;;;;;3.97;1.30;;;10.90;99.90;;;;;;5061730;28;20370;-76
2024/02/25 09:41:53;;;;;;;2.95;1.17;;;10.90;99.90;;;;;;5051516;28;20462;-73
2024/02/25 09:44:23;;;;;;;4.65;1.13;;;10.80;99.90;;;;;;5052170;28;20024;-73
2024/02/25 09:46:54;;;;;;;3.70;1.40;;;10.80;99.90;;;;;;5051561;28;20076;-74
2024/02/25 09:49:20;;;;;;;3.58;1.35;;;10.80;99.90;;;;;;5050615;28;20585;-74
2024/02/25 09:51:49;;;;;;;3.72;1.00;;;10.70;99.90;;;;;;5039415;28;20493;-74
2024/02/25 09:54:16;;;;;;;3.03;1.42;;;10.60;99.90;;;;;;5051845;28;20581;-75
2024/02/25 09:56:49;;;;;;;2.63;1.27;;;10.50;99.90;;;;;;5049448;28;20497;-73
2024/02/25 09:59:18;;;;;;;2.42;1.30;;;10.60;99.90;;;;;;5046110;28;20024;-72
2024/02/25 10:01:47;;;;;;;3.30;1.20;;;10.60;99.90;;;;;;5054782;28;20017;-80
2024/02/25 10:04:14;;;;;;;2.08;1.10;;;10.40;99.90;;;;;;5044618;28;20033;-86
2024/02/25 10:06:42;;;;;;;2.28;1.10;;;10.30;99.90;;;;;;5046203;28;20029;-81
2024/02/25 10:09:10;;;;;;;2.40;1.15;;;10.30;99.90;;;;;;5036826;28;20021;-85
2024/02/25 10:11:36;;;;;;;3.30;1.15;;;10.40;99.90;;;;;;5053310;28;20052;-85
2024/02/25 10:14:02;;;;;;;3.78;0.90;;;10.30;99.90;;;;;;5056038;28;20489;-83
2024/02/25 10:16:27;;;;;;;3.13;0.90;;;10.30;99.90;;;;;;5054951;28;20021;-84
2024/02/25 10:18:54;;;;;;;3.92;1.10;;;10.40;99.90;;;;;;5055258;28;20036;-83
2024/02/25 10:21:20;;;;;;;5.72;1.45;;;10.50;99.90;;;;;;5055569;28;20092;-82
2024/02/25 10:23:53;;;;;;;3.08;1.08;;;10.60;99.90;;;;;;5055895;28;20124;-83
2024/02/25 10:26:23;;;;;;;2.05;1.00;;;10.60;99.90;;;;;;5048782;28;20036;-85
2024/02/25 10:29:01;;;;;;;1.77;0.90;;;10.60;99.90;;;;;;5035496;28;20124;-82
2024/02/25 10:31:27;;;;;;;3.38;1.00;;;10.70;99.90;;;;;;5042819;28;20024;-85
2024/02/25 10:33:58;;;;;;;2.75;0.90;;;10.60;99.90;;;;;;5055211;28;20112;-84
2024/02/25 10:36:27;;;;;;;4.07;1.27;;;10.70;99.90;;;;;;5054745;28;20021;-84
2024/02/25 10:38:57;;;;;;;3.72;1.10;;;10.60;99.90;;;;;;5055432;28;20477;-84
2024/02/25 10:41:24;;;;;;;5.88;0.80;;;10.60;99.90;;;;;;5055457;28;20110;-78
2024/02/25 10:44:02;;;;;;;3.40;0.80;;;10.60;99.90;;;;;;5055282;28;20413;-84
2024/02/25 10:46:42;;;;;;;3.15;1.10;;;10.70;99.90;;;;;;5049777;28;20125;-85
2024/02/25 10:49:12;;;;;;;3.58;0.75;;;10.60;99.90;;;;;;5042358;28;20037;-86
2024/02/25 10:51:39;;;;;;;6.13;1.00;;;10.50;99.90;;;;;;5042314;28;20108;-83
2024/02/25 10:54:06;;;;;;;5.30;1.42;;;10.60;99.90;;;;;;5054594;28;20147;-74
2024/02/25 10:56:34;;;;;;;2.67;0.70;;;10.50;99.90;;;;;;5044881;28;20056;-72
2024/02/25 10:59:00;;;;;;;2.00;0.35;;;10.50;99.90;;;;;;5053796;28;20027;-76
2024/02/25 11:01:27;;;;;;;2.47;0.88;;;10.40;99.90;;;;;;5054548;28;20021;-75
2024/02/25 11:03:53;;;;;;;1.85;0.60;;;10.40;99.90;;;;;;5041128;28;20032;-76
2024/02/25 11:06:36;;;;;;;4.38;0.90;;;10.50;99.90;;;;;;5054443;28;20041;-78
2024/02/25 11:09:02;;;;;;;;;;;10.50;99.90;;;;;;5052577;28;20013;-79
2024/02/25 11:11:28;;;;;;;3.00;0.80;;;10.60;99.90;;;;;;5053446;28;19997;-78
2024/02/25 11:13:54;;;;;;;4.13;1.33;;;10.60;99.90;;;;;;5054046;28;20099;-79
2024/02/25 11:16:29;;;;;;;5.22;1.20;;;10.70;99.90;;;;;;5054473;28;20082;-83
2024/02/25 11:18:58;;;;;;;2.63;1.08;;;10.80;99.90;;;;;;5053938;28;20087;-77
2024/02/25 11:21:28;;;;;;;4.20;1.20;;;10.90;99.90;;;;;;5053494;28;20040;-74
2024/02/25 11:23:54;;;;;;;4.75;1.40;;;11.00;99.90;;;;;;5040847;28;20088;-75
2024/02/25 11:26:35;;;;;;;4.22;0.95;;;11.10;99.90;;;;;;5054599;28;20116;-83
2024/02/25 11:29:24;;;;;;;3.30;1.33;;;11.00;99.90;;;;;;5053617;28;20060;-81
2024/02/25 11:31:57;;;;;;;4.47;1.63;;;10.90;99.90;;;;;;5053796;28;20017;-78
2024/02/25 11:34:37;;;;;;;4.57;1.40;;;11.10;99.90;;;;;;5041544;28;20036;-75
2024/02/25 11:37:07;;;;;;;3.05;0.98;;;11.20;99.90;;;;;;5040784;28;20378;-75
2024/02/25 11:39:35;;;;;;;2.35;1.08;;;11.20;99.90;;;;;;5043687;28;20033;-82
2024/02/25 11:42:03;;;;;;;6.57;1.55;;;11.30;99.90;;;;;;5034198;28;20068;-70
2024/02/25 11:44:30;;;;;;;3.72;1.30;;;11.40;99.90;;;;;;5052995;28;20025;-81
2024/02/25 11:46:59;;;;;;;2.63;1.20;;;11.50;99.90;;;;;;5053029;28;20045;-74
2024/02/25 11:49:27;;;;;;;3.85;1.40;;;11.50;99.90;;;;;;5052085;28;20025;-77
2024/02/25 11:51:54;;;;;;;6.30;1.42;;;11.80;99.90;;;;;;5054047;28;20359;-71
2024/02/25 11:54:20;;;;;;;4.45;1.50;;;11.90;99.90;;;;;;5051327;28;20025;-79
2024/02/25 11:56:47;;;;;;;5.43;1.42;;;11.80;99.90;;;;;;5038060;28;20033;-81
2024/02/25 11:59:13;;;;;;;3.70;1.10;;;11.90;99.90;;;;;;5043460;28;20082;-74
2024/02/25 12:01:40;;;;;;;2.47;1.05;;;12.00;99.90;;;;;;5047153;28;20111;-82
2024/02/25 12:04:06;;;;;;;3.83;1.10;;;12.00;99.90;;;;;;5051606;28;20383;-76
2024/02/25 12:06:34;;;;;;;5.35;1.40;;;12.00;99.90;;;;;;5043312;28;20540;-76
2024/02/25 12:09:05;;;;;;;1.70;0.90;;;11.90;99.90;;;;;;5048556;28;20102;-73
2024/02/25 12:11:32;;;;;;;3.90;0.98;;;11.80;99.90;;;;;;5052018;28;20025;-83
2024/02/25 12:14:17;;;;;;;3.08;1.02;;;11.80;99.90;;;;;;5051374;28;20508;-73
2024/02/25 12:16:44;;;;;;;4.57;0.90;;;11.70;99.90;;;;;;5052025;28;20028;-81
2024/02/25 12:19:11;;;;;;;7.63;1.30;;;11.60;99.90;;;;;;5052792;28;20486;-80
2024/02/25 12:21:37;;;;;;;4.32;0.77;;;11.60;99.90;;;;;;5051954;28;20484;-81
2024/02/25 12:24:05;;;;;;;3.10;0.93;;;11.40;99.90;;;;;;5039694;28;20106;-81
2024/02/25 12:26:48;;;;;;;4.93;1.08;;;11.50;99.90;;;;;;5052404;28;20032;-81
2024/02/25 12:29:15;;;;;;;3.47;1.38;;;11.50;99.90;;;;;;5052425;28;20040;-82
2024/02/25 12:31:41;;;;;;;3.53;1.02;;;11.60;99.90;;;;;;5050347;28;20021;-80
2024/02/25 12:34:07;;;;;;;3.70;0.93;;;11.60;99.90;;;;;;5040436;28;20037;-82
2024/02/25 12:36:33;;;;;;;3.92;0.75;;;11.80;99.90;;;;;;5049322;28;20027;-76
2024/02/25 12:38:58;;;;;;;3.38;0.82;;;12.00;99.90;;;;;;5043599;28;20022;-83
2024/02/25 12:41:24;;;;;;;4.05;0.73;;;12.00;99.90;;;;;;5042855;28;20091;-83
2024/02/25 12:43:55;;;;;;;1.75;0.75;;;11.80;99.90;;;;;;5052523;28;20017;-85
2024/02/25 12:46:20;;;;;;;5.75;1.13;;;11.70;99.90;;;;;;5044024;28;20079;-82
2024/02/25 12:48:46;;;;;;;4.43;0.77;;;11.60;99.90;;;;;;5051133;28;20389;-81
2024/02/25 12:51:19;;;;;;;6.25;1.05;;;11.60;99.90;;;;;;5050455;28;20060;-83
2024/02/25 12:53:48;;;;;;;2.83;1.25;;;11.60;99.90;;;;;;5049698;28;20024;-83